aviador You're here:

OICM Decoded Metar

MEHRAN in IRAN
Report Time2017-08-24 08:00:00
UTC Time2017-08-24 08:49:59
Flight Rules vfr VFR
Wind310° at 10 kt
W.Rank310° ranks 4
Current wind is above 310° avg. (7.7)
Visibility9999 m
Phenomena:N/A
Clouds:N/A
Expected CloudBase > 15,600 ft AGL from Temp-Dew spread
CeilingNone
Temp42°C
Dew Point03°C (9% RH)
Heat Index38.7°C
AAT36.8°C
QNH1002 hPa
Raw Report
METAR OICM 240800Z 31010KT CAVOK 42/03 Q1002=

Extra information for OICM:More info

Social comments